Station Historical Data
Daily Summary for May 14, 2011 Units:  Both    English   Metric
« Previous Day
Next Day »
Daily Weekly Monthly Yearly Custom
  High: Low: Average:
Temperature: 61.9 °F /  16.6 °C 54.1 °F /  12.3 °C 59.3 °F /  15.2 °C
Dew Point: 60.0 °F /  15.6 °C 53.0 °F /  11.7 °C 58.2 °F /  14.6 °C
Humidity: 99% 83% 96%
Wind Speed: 10.0mph /  16.1km/h - 3.7mph /  6km/h
Wind Gust: 21.0mph /  33.8km/h - -
Wind- - WSW
Pressure: 29.78 in /  1008.4 hPa 29.64 in /  1003.6 hPa -
Precipitation: 0.05 in /  1.27 mm    
Historical Graphs
 
 
Tabular Data for May 14, 2011
Time Temperature Dew Point Pressure Wind Wind Speed Wind Gust Humidity Rainfall Rate (Hourly) Conditions
00:00 60.1 °F /  15.6 °C 59.2 °F /  15.1 °C 29.71in /  1006hPa South 6.0mph /  9.7km/h 10.0mph /  16.1km/h 97% 0.10in /  2.54mm
00:05 60.2 °F /  15.7 °C 59.3 °F /  15.2 °C 29.70in /  1005.6hPa SE 6.0mph /  9.7km/h 8.0mph /  12.9km/h 97% 0.09in /  2.29mm
00:10 60.2 °F /  15.7 °C 59.3 °F /  15.2 °C 29.70in /  1005.6hPa SE 4.0mph /  6.4km/h 8.0mph /  12.9km/h 97% 0.07in /  1.78mm
00:11 60.2 °F /  15.7 °C 59.3 °F /  15.2 °C 29.70in /  1005.6hPa SE 4.0mph /  6.4km/h 8.0mph /  12.9km/h 97% 0.07in /  1.78mm
00:16 60.3 °F /  15.7 °C 59.5 °F /  15.3 °C 29.69in /  1005.3hPa ESE 5.0mph /  8km/h 7.0mph /  11.3km/h 97% 0.04in /  1.02mm
00:21 60.3 °F /  15.7 °C 59.5 °F /  15.3 °C 29.70in /  1005.6hPa SSW 3.0mph /  4.8km/h 7.0mph /  11.3km/h 97% 0.00in /  0mm
00:26 60.3 °F /  15.7 °C 59.5 °F /  15.3 °C 29.70in /  1005.6hPa SE 3.0mph /  4.8km/h 4.0mph /  6.4km/h 97% 0.00in /  0mm
00:27 60.3 °F /  15.7 °C 59.5 °F /  15.3 °C 29.70in /  1005.6hPa SSE 4.0mph /  6.4km/h 4.0mph /  6.4km/h 97% 0.00in /  0mm
00:31 60.3 °F /  15.7 °C 59.5 °F /  15.3 °C 29.70in /  1005.6hPa South 2.0mph /  3.2km/h 5.0mph /  8km/h 97% 0.00in /  0mm
00:32 60.3 °F /  15.7 °C 59.5 °F /  15.3 °C 29.70in /  1005.6hPa WSW 4.0mph /  6.4km/h 4.0mph /  6.4km/h 97% 0.00in /  0mm
00:36 60.3 °F /  15.7 °C 59.5 °F /  15.3 °C 29.70in /  1005.6hPa SSW 1.0mph /  1.6km/h 4.0mph /  6.4km/h 97% 0.00in /  0mm
00:41 60.3 °F /  15.7 °C 59.5 °F /  15.3 °C 29.70in /  1005.6hPa SSE 2.0mph /  3.2km/h 5.0mph /  8km/h 97% 0.00in /  0mm
00:46 60.3 °F /  15.7 °C 59.5 °F /  15.3 °C 29.70in /  1005.6hPa South 1.0mph /  1.6km/h 2.0mph /  3.2km/h 97% 0.00in /  0mm
00:51 60.3 °F /  15.7 °C 59.5 °F /  15.3 °C 29.70in /  1005.6hPa SW 3.0mph /  4.8km/h 4.0mph /  6.4km/h 97% 0.00in /  0mm
00:52 60.3 °F /  15.7 °C 59.5 °F /  15.3 °C 29.70in /  1005.6hPa SSE 2.0mph /  3.2km/h 4.0mph /  6.4km/h 97% 0.00in /  0mm
00:56 60.3 °F /  15.7 °C 59.5 °F /  15.3 °C 29.70in /  1005.6hPa SSW 1.0mph /  1.6km/h 5.0mph /  8km/h 97% 0.00in /  0mm
00:57 60.3 °F /  15.7 °C 59.5 °F /  15.3 °C 29.70in /  1005.6hPa South 2.0mph /  3.2km/h 5.0mph /  8km/h 97% 0.00in /  0mm
00:58 60.3 °F /  15.7 °C 59.5 °F /  15.3 °C 29.70in /  1005.6hPa South 2.0mph /  3.2km/h 4.0mph /  6.4km/h 97% 0.00in /  0mm
01:03 60.3 °F /  15.7 °C 59.5 °F /  15.3 °C 29.69in /  1005.3hPa SSW 3.0mph /  4.8km/h 3.0mph /  4.8km/h 97% 0.00in /  0mm
01:08 60.4 °F /  15.8 °C 59.5 °F /  15.3 °C 29.69in /  1005.3hPa SSW 3.0mph /  4.8km/h 5.0mph /  8km/h 97% 0.00in /  0mm
01:13 60.4 °F /  15.8 °C 59.5 °F /  15.3 °C 29.68in /  1005hPa SSW 3.0mph /  4.8km/h 4.0mph /  6.4km/h 97% 0.00in /  0mm
01:14 60.4 °F /  15.8 °C 59.5 °F /  15.3 °C 29.68in /  1005hPa South 1.0mph /  1.6km/h 4.0mph /  6.4km/h 97% 0.00in /  0mm
01:19 60.4 °F /  15.8 °C 59.5 °F /  15.3 °C 29.69in /  1005.3hPa SSE 2.0mph /  3.2km/h 4.0mph /  6.4km/h 97% 0.00in /  0mm
01:24 60.4 °F /  15.8 °C 59.5 °F /  15.3 °C 29.68in /  1005hPa SSE 3.0mph /  4.8km/h 6.0mph /  9.7km/h 97% 0.00in /  0mm
01:25 60.4 °F /  15.8 °C 59.5 °F /  15.3 °C 29.68in /  1005hPa SSE 6.0mph /  9.7km/h 6.0mph /  9.7km/h 97% 0.00in /  0mm
01:30 60.4 °F /  15.8 °C 59.5 °F /  15.3 °C 29.68in /  1005hPa SE 4.0mph /  6.4km/h 5.0mph /  8km/h 97% 0.00in /  0mm
01:35 60.4 °F /  15.8 °C 59.5 °F /  15.3 °C 29.67in /  1004.6hPa SE 3.0mph /  4.8km/h 5.0mph /  8km/h 97% 0.00in /  0mm
01:36 60.4 °F /  15.8 °C 59.5 °F /  15.3 °C 29.67in /  1004.6hPa SSW 4.0mph /  6.4km/h 6.0mph /  9.7km/h 97% 0.00in /  0mm
01:41 60.4 °F /  15.8 °C 59.5 °F /  15.3 °C 29.67in /  1004.6hPa SW 1.0mph /  1.6km/h 4.0mph /  6.4km/h 97% 0.00in /  0mm
01:47 60.3 °F /  15.7 °C 59.5 °F /  15.3 °C 29.66in /  1004.3hPa Calm   1.0mph /  1.6km/h 97% 0.00in /  0mm
01:52 60.2 °F /  15.7 °C 59.3 °F /  15.2 °C 29.66in /  1004.3hPa SSE 1.0mph /  1.6km/h 2.0mph /  3.2km/h 97% 0.00in /  0mm
01:54 60.2 °F /  15.7 °C 59.3 °F /  15.2 °C 29.66in /  1004.3hPa SSE 1.0mph /  1.6km/h 2.0mph /  3.2km/h 97% 0.00in /  0mm
01:58 60.1 °F /  15.6 °C 59.2 °F /  15.1 °C 29.66in /  1004.3hPa SSE 1.0mph /  1.6km/h 2.0mph /  3.2km/h 97% 0.00in /  0mm
01:59 60.1 °F /  15.6 °C 59.2 °F /  15.1 °C 29.66in /  1004.3hPa SE 1.0mph /  1.6km/h 2.0mph /  3.2km/h 97% 0.00in /  0mm
02:04 60.0 °F /  15.6 °C 59.2 °F /  15.1 °C 29.66in /  1004.3hPa SSW 1.0mph /  1.6km/h 1.0mph /  1.6km/h 97% 0.00in /  0mm
02:09 59.9 °F /  15.5 °C 59.3 °F /  15.2 °C 29.66in /  1004.3hPa Calm   1.0mph /  1.6km/h 98% 0.00in /  0mm
02:14 59.7 °F /  15.4 °C 58.8 °F /  14.9 °C 29.66in /  1004.3hPa SW 1.0mph /  1.6km/h 2.0mph /  3.2km/h 97% 0.00in /  0mm
02:19 59.6 °F /  15.3 °C 59.0 °F /  15 °C 29.66in /  1004.3hPa SW 1.0mph /  1.6km/h 2.0mph /  3.2km/h 98% 0.00in /  0mm
02:24 59.5 °F /  15.3 °C 58.9 °F /  14.9 °C 29.66in /  1004.3hPa SW 1.0mph /  1.6km/h 4.0mph /  6.4km/h 98% 0.00in /  0mm
02:29 59.3 °F /  15.2 °C 58.7 °F /  14.8 °C 29.66in /  1004.3hPa South 2.0mph /  3.2km/h 2.0mph /  3.2km/h 98% 0.00in /  0mm
02:34 59.2 °F /  15.1 °C 58.6 °F /  14.8 °C 29.66in /  1004.3hPa SSE 2.0mph /  3.2km/h 2.0mph /  3.2km/h 98% 0.00in /  0mm
02:35 59.2 °F /  15.1 °C 58.6 °F /  14.8 °C 29.66in /  1004.3hPa SSE 1.0mph /  1.6km/h 2.0mph /  3.2km/h 98% 0.00in /  0mm
02:36 59.2 °F /  15.1 °C 58.6 °F /  14.8 °C 29.66in /  1004.3hPa South 1.0mph /  1.6km/h 2.0mph /  3.2km/h 98% 0.00in /  0mm
02:39 59.2 °F /  15.1 °C 58.6 °F /  14.8 °C 29.66in /  1004.3hPa SW 1.0mph /  1.6km/h 2.0mph /  3.2km/h 98% 0.00in /  0mm
02:44 59.1 °F /  15.1 °C 58.5 °F /  14.7 °C 29.66in /  1004.3hPa WSW 2.0mph /  3.2km/h 2.0mph /  3.2km/h 98% 0.00in /  0mm
02:49 59.3 °F /  15.2 °C 58.7 °F /  14.8 °C 29.66in /  1004.3hPa SW 1.0mph /  1.6km/h 2.0mph /  3.2km/h 98% 0.00in /  0mm
02:54 59.4 °F /  15.2 °C 58.8 °F /  14.9 °C 29.66in /  1004.3hPa West 3.0mph /  4.8km/h 4.0mph /  6.4km/h 98% 0.00in /  0mm
02:55 59.4 °F /  15.2 °C 58.8 °F /  14.9 °C 29.66in /  1004.3hPa West 3.0mph /  4.8km/h 4.0mph /  6.4km/h 98% 0.00in /  0mm
03:00 59.5 °F /  15.3 °C 58.9 °F /  14.9 °C 29.66in /  1004.3hPa WSW 2.0mph /  3.2km/h 3.0mph /  4.8km/h 98% 0.00in /  0mm
03:05 59.5 °F /  15.3 °C 58.9 °F /  14.9 °C 29.65in /  1003.9hPa WSW 1.0mph /  1.6km/h 2.0mph /  3.2km/h 98% 0.00in /  0mm
03:10 59.6 °F /  15.3 °C 59.0 °F /  15 °C 29.65in /  1003.9hPa West 1.0mph /  1.6km/h 2.0mph /  3.2km/h 98% 0.00in /  0mm
03:15 59.6 °F /  15.3 °C 59.0 °F /  15 °C 29.65in /  1003.9hPa SW 2.0mph /  3.2km/h 2.0mph /  3.2km/h 98% 0.00in /  0mm
03:20 59.5 °F /  15.3 °C 58.9 °F /  14.9 °C 29.65in /  1003.9hPa SW 2.0mph /  3.2km/h 3.0mph /  4.8km/h 98% 0.00in /  0mm
03:25 59.6 °F /  15.3 °C 59.0 °F /  15 °C 29.65in /  1003.9hPa West 1.0mph /  1.6km/h 2.0mph /  3.2km/h 98% 0.00in /  0mm
03:26 59.6 °F /  15.3 °C 59.0 °F /  15 °C 29.65in /  1003.9hPa West 1.0mph /  1.6km/h 2.0mph /  3.2km/h 98% 0.00in /  0mm
03:31 59.6 °F /  15.3 °C 59.0 °F /  15 °C 29.65in /  1003.9hPa SW 1.0mph /  1.6km/h 2.0mph /  3.2km/h 98% 0.00in /  0mm
03:33 59.6 °F /  15.3 °C 59.0 °F /  15 °C 29.65in /  1003.9hPa SW 1.0mph /  1.6km/h 2.0mph /  3.2km/h 98% 0.00in /  0mm
03:36 59.6 °F /  15.3 °C 59.0 °F /  15 °C 29.65in /  1003.9hPa West 1.0mph /  1.6km/h 2.0mph /  3.2km/h 98% 0.00in /  0mm
03:38 59.7 °F /  15.4 °C 59.1 °F /  15.1 °C 29.65in /  1003.9hPa WSW 1.0mph /  1.6km/h 2.0mph /  3.2km/h 98% 0.00in /  0mm
03:42 59.7 °F /  15.4 °C 59.1 °F /  15.1 °C 29.65in /  1003.9hPa SW 1.0mph /  1.6km/h 2.0mph /  3.2km/h 98% 0.00in /  0mm
03:43 59.7 °F /  15.4 °C 59.1 °F /  15.1 °C 29.65in /  1003.9hPa SW 1.0mph /  1.6km/h 2.0mph /  3.2km/h 98% 0.00in /  0mm
03:48 59.7 °F /  15.4 °C 59.4 °F /  15.2 °C 29.64in /  1003.6hPa SW 1.0mph /  1.6km/h 2.0mph /  3.2km/h 99% 0.00in /  0mm
03:53 59.7 °F /  15.4 °C 59.4 °F /  15.2 °C 29.65in /  1003.9hPa South 1.0mph /  1.6km/h 3.0mph /  4.8km/h 99% 0.00in /  0mm
03:54 59.7 °F /  15.4 °C 59.4 °F /  15.2 °C 29.65in /  1003.9hPa South 1.0mph /  1.6km/h 3.0mph /  4.8km/h 99% 0.00in /  0mm
03:56 59.7 °F /  15.4 °C 59.4 °F /  15.2 °C 29.64in /  1003.6hPa SSE 1.0mph /  1.6km/h 3.0mph /  4.8km/h 99% 0.00in /  0mm
04:00 59.8 °F /  15.4 °C 59.5 °F /  15.3 °C 29.65in /  1003.9hPa Calm   2.0mph /  3.2km/h 99% 0.00in /  0mm
04:05 59.7 °F /  15.4 °C 59.4 °F /  15.2 °C 29.65in /  1003.9hPa Calm   2.0mph /  3.2km/h 99% 0.00in /  0mm
04:10 59.8 °F /  15.4 °C 59.5 °F /  15.3 °C 29.65in /  1003.9hPa Calm   2.0mph /  3.2km/h 99% 0.00in /  0mm
04:15 59.8 °F /  15.4 °C 59.5 °F /  15.3 °C 29.65in /  1003.9hPa South 1.0mph /  1.6km/h 2.0mph /  3.2km/h 99% 0.00in /  0mm
04:16 59.8 °F /  15.4 °C 59.5 °F /  15.3 °C 29.65in /  1003.9hPa SW 1.0mph /  1.6km/h 2.0mph /  3.2km/h 99% 0.00in /  0mm
04:21 59.8 °F /  15.4 °C 59.5 °F /  15.3 °C 29.64in /  1003.6hPa SW 1.0mph /  1.6km/h 2.0mph /  3.2km/h 99% 0.00in /  0mm
04:26 59.9 °F /  15.5 °C 59.6 °F /  15.3 °C 29.65in /  1003.9hPa South 1.0mph /  1.6km/h 3.0mph /  4.8km/h 99% 0.00in /  0mm
04:27 59.9 °F /  15.5 °C 59.6 °F /  15.3 °C 29.65in /  1003.9hPa SW 2.0mph /  3.2km/h 3.0mph /  4.8km/h 99% 0.00in /  0mm
04:32 60.0 °F /  15.6 °C 59.7 °F /  15.4 °C 29.65in /  1003.9hPa SSW 4.0mph /  6.4km/h 5.0mph /  8km/h 99% 0.00in /  0mm
04:33 60.0 °F /  15.6 °C 59.7 °F /  15.4 °C 29.65in /  1003.9hPa SSW 4.0mph /  6.4km/h 5.0mph /  8km/h 99% 0.00in /  0mm
04:34 59.9 °F /  15.5 °C 59.6 °F /  15.3 °C 29.64in /  1003.6hPa WSW 7.0mph /  11.3km/h 7.0mph /  11.3km/h 99% 0.00in /  0mm
04:37 60.0 °F /  15.6 °C 59.7 °F /  15.4 °C 29.65in /  1003.9hPa West 1.0mph /  1.6km/h 7.0mph /  11.3km/h 99% 0.00in /  0mm
04:39 60.0 °F /  15.6 °C 59.7 °F /  15.4 °C 29.65in /  1003.9hPa West 2.0mph /  3.2km/h 3.0mph /  4.8km/h 99% 0.00in /  0mm
04:42 60.0 °F /  15.6 °C 59.7 °F /  15.4 °C 29.65in /  1003.9hPa West 3.0mph /  4.8km/h 5.0mph /  8km/h 99% 0.00in /  0mm
04:45 60.0 °F /  15.6 °C 59.7 °F /  15.4 °C 29.64in /  1003.6hPa WSW 3.0mph /  4.8km/h 7.0mph /  11.3km/h 99% 0.00in /  0mm
04:47 60.0 °F /  15.6 °C 59.7 °F /  15.4 °C 29.64in /  1003.6hPa West 1.0mph /  1.6km/h 3.0mph /  4.8km/h 99% 0.00in /  0mm
04:52 60.1 °F /  15.6 °C 59.8 °F /  15.4 °C 29.65in /  1003.9hPa WSW 2.0mph /  3.2km/h 2.0mph /  3.2km/h 99% 0.00in /  0mm
04:53 60.1 °F /  15.6 °C 59.8 °F /  15.4 °C 29.65in /  1003.9hPa WSW 2.0mph /  3.2km/h 3.0mph /  4.8km/h 99% 0.00in /  0mm
04:58 60.2 °F /  15.7 °C 59.9 °F /  15.5 °C 29.65in /  1003.9hPa WSW 2.0mph /  3.2km/h 3.0mph /  4.8km/h 99% 0.00in /  0mm
05:03 60.2 °F /  15.7 °C 59.9 °F /  15.5 °C 29.65in /  1003.9hPa WSW 1.0mph /  1.6km/h 3.0mph /  4.8km/h 99% 0.00in /  0mm
05:08 60.3 °F /  15.7 °C 60.0 °F /  15.6 °C 29.65in /  1003.9hPa WSW 1.0mph /  1.6km/h 4.0mph /  6.4km/h 99% 0.00in /  0mm
05:13 60.3 °F /  15.7 °C 60.0 °F /  15.6 °C 29.65in /  1003.9hPa West 2.0mph /  3.2km/h 4.0mph /  6.4km/h 99% 0.00in /  0mm
05:18 60.3 °F /  15.7 °C 59.7 °F /  15.4 °C 29.65in /  1003.9hPa West 5.0mph /  8km/h 6.0mph /  9.7km/h 98% 0.00in /  0mm
05:19 60.3 °F /  15.7 °C 59.7 °F /  15.4 °C 29.65in /  1003.9hPa West 4.0mph /  6.4km/h 6.0mph /  9.7km/h 98% 0.00in /  0mm
05:24 60.3 °F /  15.7 °C 59.7 °F /  15.4 °C 29.65in /  1003.9hPa WSW 5.0mph /  8km/h 6.0mph /  9.7km/h 98% 0.00in /  0mm
05:29 60.1 °F /  15.6 °C 59.5 °F /  15.3 °C 29.65in /  1003.9hPa WNW 8.0mph /  12.9km/h 9.0mph /  14.5km/h 98% 0.00in /  0mm
05:31 60.1 °F /  15.6 °C 59.2 °F /  15.1 °C 29.65in /  1003.9hPa West 3.0mph /  4.8km/h 9.0mph /  14.5km/h 97% 0.00in /  0mm
05:32 60.1 °F /  15.6 °C 59.2 °F /  15.1 °C 29.65in /  1003.9hPa West 3.0mph /  4.8km/h 9.0mph /  14.5km/h 97% 0.00in /  0mm
05:34 60.1 °F /  15.6 °C 59.2 °F /  15.1 °C 29.65in /  1003.9hPa WNW 5.0mph /  8km/h 6.0mph /  9.7km/h 97% 0.00in /  0mm
05:37 60.1 °F /  15.6 °C 59.2 °F /  15.1 °C 29.65in /  1003.9hPa WNW 3.0mph /  4.8km/h 5.0mph /  8km/h 97% 0.00in /  0mm
05:39 60.0 °F /  15.6 °C 59.2 °F /  15.1 °C 29.64in /  1003.6hPa West 2.0mph /  3.2km/h 4.0mph /  6.4km/h 97% 0.00in /  0mm
05:44 59.9 °F /  15.5 °C 59.0 °F /  15 °C 29.64in /  1003.6hPa WNW 5.0mph /  8km/h 5.0mph /  8km/h 97% 0.00in /  0mm
05:49 59.8 °F /  15.4 °C 59.0 °F /  15 °C 29.64in /  1003.6hPa West 3.0mph /  4.8km/h 7.0mph /  11.3km/h 97% 0.00in /  0mm
05:54 59.7 °F /  15.4 °C 58.6 °F /  14.8 °C 29.65in /  1003.9hPa West 4.0mph /  6.4km/h 7.0mph /  11.3km/h 96% 0.00in /  0mm
05:55 59.7 °F /  15.4 °C 58.6 °F /  14.8 °C 29.65in /  1003.9hPa West 4.0mph /  6.4km/h 7.0mph /  11.3km/h 96% 0.00in /  0mm
05:59 59.6 °F /  15.3 °C 58.5 °F /  14.7 °C 29.65in /  1003.9hPa WNW 6.0mph /  9.7km/h 7.0mph /  11.3km/h 96% 0.00in /  0mm
06:00 59.5 °F /  15.3 °C 58.4 °F /  14.7 °C 29.65in /  1003.9hPa West 9.0mph /  14.5km/h 9.0mph /  14.5km/h 96% 0.00in /  0mm
06:05 59.4 °F /  15.2 °C 58.0 °F /  14.4 °C 29.65in /  1003.9hPa WNW 5.0mph /  8km/h 9.0mph /  14.5km/h 95% 0.00in /  0mm
06:10 59.3 °F /  15.2 °C 57.9 °F /  14.4 °C 29.65in /  1003.9hPa NW 2.0mph /  3.2km/h 7.0mph /  11.3km/h 95% 0.00in /  0mm
06:15 59.2 °F /  15.1 °C 58.1 °F /  14.5 °C 29.65in /  1003.9hPa SW 4.0mph /  6.4km/h 4.0mph /  6.4km/h 96% 0.00in /  0mm
06:20 59.1 °F /  15.1 °C 58.0 °F /  14.4 °C 29.65in /  1003.9hPa WNW 2.0mph /  3.2km/h 4.0mph /  6.4km/h 96% 0.00in /  0mm
06:25 59.1 °F /  15.1 °C 58.0 °F /  14.4 °C 29.65in /  1003.9hPa WNW 5.0mph /  8km/h 5.0mph /  8km/h 96% 0.00in /  0mm
06:26 59.1 °F /  15.1 °C 58.0 °F /  14.4 °C 29.65in /  1003.9hPa NW 3.0mph /  4.8km/h 5.0mph /  8km/h 96% 0.00in /  0mm
06:29 59.1 °F /  15.1 °C 58.0 °F /  14.4 °C 29.65in /  1003.9hPa WNW 3.0mph /  4.8km/h 5.0mph /  8km/h 96% 0.00in /  0mm
06:31 59.0 °F /  15 °C 57.9 °F /  14.4 °C 29.65in /  1003.9hPa WNW 4.0mph /  6.4km/h 5.0mph /  8km/h 96% 0.00in /  0mm
06:32 59.0 °F /  15 °C 57.9 °F /  14.4 °C 29.65in /  1003.9hPa West 4.0mph /  6.4km/h 5.0mph /  8km/h 96% 0.00in /  0mm
06:36 59.0 °F /  15 °C 57.9 °F /  14.4 °C 29.65in /  1003.9hPa WNW 1.0mph /  1.6km/h 4.0mph /  6.4km/h 96% 0.00in /  0mm
06:37 59.0 °F /  15 °C 57.9 °F /  14.4 °C 29.65in /  1003.9hPa WNW 1.0mph /  1.6km/h 4.0mph /  6.4km/h 96% 0.00in /  0mm
06:41 58.9 °F /  14.9 °C 57.8 °F /  14.3 °C 29.66in /  1004.3hPa WNW 3.0mph /  4.8km/h 6.0mph /  9.7km/h 96% 0.00in /  0mm
06:42 58.9 °F /  14.9 °C 57.8 °F /  14.3 °C 29.66in /  1004.3hPa West 3.0mph /  4.8km/h 6.0mph /  9.7km/h 96% 0.00in /  0mm
06:46 58.8 °F /  14.9 °C 57.7 °F /  14.3 °C 29.66in /  1004.3hPa WNW 5.0mph /  8km/h 6.0mph /  9.7km/h 96% 0.00in /  0mm
06:47 58.8 °F /  14.9 °C 57.7 °F /  14.3 °C 29.66in /  1004.3hPa WNW 3.0mph /  4.8km/h 6.0mph /  9.7km/h 96% 0.00in /  0mm
06:51 58.7 °F /  14.8 °C 57.6 °F /  14.2 °C 29.66in /  1004.3hPa West 6.0mph /  9.7km/h 6.0mph /  9.7km/h 96% 0.00in /  0mm
06:52 58.7 °F /  14.8 °C 57.6 °F /  14.2 °C 29.66in /  1004.3hPa West 5.0mph /  8km/h 6.0mph /  9.7km/h 96% 0.00in /  0mm
06:53 58.7 °F /  14.8 °C 57.6 °F /  14.2 °C 29.66in /  1004.3hPa WSW 4.0mph /  6.4km/h 6.0mph /  9.7km/h 96% 0.00in /  0mm
06:57 58.7 °F /  14.8 °C 57.6 °F /  14.2 °C 29.67in /  1004.6hPa West 4.0mph /  6.4km/h 6.0mph /  9.7km/h 96% 0.00in /  0mm
07:02 58.6 °F /  14.8 °C 57.5 °F /  14.2 °C 29.67in /  1004.6hPa West 3.0mph /  4.8km/h 6.0mph /  9.7km/h 96% 0.00in /  0mm
07:08 58.4 °F /  14.7 °C 57.3 °F /  14.1 °C 29.67in /  1004.6hPa WSW 5.0mph /  8km/h 7.0mph /  11.3km/h 96% 0.00in /  0mm
07:13 58.4 °F /  14.7 °C 57.3 °F /  14.1 °C 29.67in /  1004.6hPa WSW 3.0mph /  4.8km/h 5.0mph /  8km/h 96% 0.00in /  0mm
07:18 58.3 °F /  14.6 °C 57.2 °F /  14 °C 29.67in /  1004.6hPa West 6.0mph /  9.7km/h 8.0mph /  12.9km/h 96% 0.00in /  0mm
07:23 58.2 °F /  14.6 °C 57.1 °F /  13.9 °C 29.67in /  1004.6hPa West 6.0mph /  9.7km/h 8.0mph /  12.9km/h 96% 0.00in /  0mm
07:28 58.1 °F /  14.5 °C 57.0 °F /  13.9 °C 29.67in /  1004.6hPa West 6.0mph /  9.7km/h 10.0mph /  16.1km/h 96% 0.00in /  0mm
07:32 58.0 °F /  14.4 °C 56.9 °F /  13.8 °C 29.68in /  1005hPa WNW 5.0mph /  8km/h 10.0mph /  16.1km/h 96% 0.00in /  0mm
07:33 58.0 °F /  14.4 °C 56.9 °F /  13.8 °C 29.67in /  1004.6hPa NW 5.0mph /  8km/h 10.0mph /  16.1km/h 96% 0.00in /  0mm
07:38 57.9 °F /  14.4 °C 56.8 °F /  13.8 °C 29.68in /  1005hPa WSW 8.0mph /  12.9km/h 11.0mph /  17.7km/h 96% 0.00in /  0mm
07:39 57.9 °F /  14.4 °C 56.8 °F /  13.8 °C 29.68in /  1005hPa West 6.0mph /  9.7km/h 10.0mph /  16.1km/h 96% 0.00in /  0mm
07:43 57.8 °F /  14.3 °C 56.7 °F /  13.7 °C 29.68in /  1005hPa West 4.0mph /  6.4km/h 7.0mph /  11.3km/h 96% 0.00in /  0mm
07:44 57.8 °F /  14.3 °C 56.7 °F /  13.7 °C 29.68in /  1005hPa West 3.0mph /  4.8km/h 7.0mph /  11.3km/h 96% 0.00in /  0mm
07:49 57.8 °F /  14.3 °C 56.7 °F /  13.7 °C 29.68in /  1005hPa West 6.0mph /  9.7km/h 7.0mph /  11.3km/h 96% 0.00in /  0mm
07:50 57.8 °F /  14.3 °C 56.7 °F /  13.7 °C 29.68in /  1005hPa West 4.0mph /  6.4km/h 7.0mph /  11.3km/h 96% 0.00in /  0mm
07:54 57.9 °F /  14.4 °C 56.8 °F /  13.8 °C 29.68in /  1005hPa WSW 2.0mph /  3.2km/h 4.0mph /  6.4km/h 96% 0.00in /  0mm
07:55 57.9 °F /  14.4 °C 56.8 °F /  13.8 °C 29.68in /  1005hPa WSW 2.0mph /  3.2km/h 4.0mph /  6.4km/h 96% 0.00in /  0mm
08:00 58.0 °F /  14.4 °C 56.9 °F /  13.8 °C 29.68in /  1005hPa WNW 4.0mph /  6.4km/h 7.0mph /  11.3km/h 96% 0.00in /  0mm
08:05 58.0 °F /  14.4 °C 56.6 °F /  13.7 °C 29.68in /  1005hPa WSW 5.0mph /  8km/h 7.0mph /  11.3km/h 95% 0.00in /  0mm
08:10 58.1 °F /  14.5 °C 56.7 °F /  13.7 °C 29.68in /  1005hPa West 6.0mph /  9.7km/h 8.0mph /  12.9km/h 95% 0.00in /  0mm
08:11 58.1 °F /  14.5 °C 56.7 °F /  13.7 °C 29.68in /  1005hPa SW 5.0mph /  8km/h 11.0mph /  17.7km/h 95% 0.00in /  0mm
08:15 58.2 °F /  14.6 °C 56.8 °F /  13.8 °C 29.68in /  1005hPa WSW 7.0mph /  11.3km/h 8.0mph /  12.9km/h 95% 0.00in /  0mm
08:20 58.2 °F /  14.6 °C 56.8 °F /  13.8 °C 29.68in /  1005hPa WSW 3.0mph /  4.8km/h 9.0mph /  14.5km/h 95% 0.00in /  0mm
08:25 58.2 °F /  14.6 °C 57.1 °F /  13.9 °C 29.69in /  1005.3hPa WSW 3.0mph /  4.8km/h 5.0mph /  8km/h 96% 0.00in /  0mm
08:26 58.2 °F /  14.6 °C 57.1 °F /  13.9 °C 29.69in /  1005.3hPa WSW 3.0mph /  4.8km/h 5.0mph /  8km/h 96% 0.00in /  0mm
08:30 58.2 °F /  14.6 °C 57.1 °F /  13.9 °C 29.69in /  1005.3hPa WNW 5.0mph /  8km/h 7.0mph /  11.3km/h 96% 0.00in /  0mm
08:31 58.2 °F /  14.6 °C 57.1 °F /  13.9 °C 29.69in /  1005.3hPa WSW 5.0mph /  8km/h 7.0mph /  11.3km/h 96% 0.00in /  0mm
08:32 58.2 °F /  14.6 °C 57.1 °F /  13.9 °C 29.69in /  1005.3hPa WSW 5.0mph /  8km/h 7.0mph /  11.3km/h 96% 0.00in /  0mm
08:36 58.4 °F /  14.7 °C 57.3 °F /  14.1 °C 29.69in /  1005.3hPa West 3.0mph /  4.8km/h 5.0mph /  8km/h 96% 0.00in /  0mm
08:38 58.4 °F /  14.7 °C 57.0 °F /  13.9 °C 29.68in /  1005hPa SW 3.0mph /  4.8km/h 5.0mph /  8km/h 95% 0.00in /  0mm
08:41 58.4 °F /  14.7 °C 57.0 °F /  13.9 °C 29.69in /  1005.3hPa WSW 6.0mph /  9.7km/h 6.0mph /  9.7km/h 95% 0.00in /  0mm
08:46 58.4 °F /  14.7 °C 57.3 °F /  14.1 °C 29.69in /  1005.3hPa WSW 3.0mph /  4.8km/h 6.0mph /  9.7km/h 96% 0.00in /  0mm
08:51 58.4 °F /  14.7 °C 57.3 °F /  14.1 °C 29.69in /  1005.3hPa WSW 7.0mph /  11.3km/h 7.0mph /  11.3km/h 96% 0.00in /  0mm
08:53 58.4 °F /  14.7 °C 57.3 °F /  14.1 °C 29.69in /  1005.3hPa WSW 6.0mph /  9.7km/h 7.0mph /  11.3km/h 96% 0.00in /  0mm
08:56 58.4 °F /  14.7 °C 57.3 °F /  14.1 °C 29.69in /  1005.3hPa West 4.0mph /  6.4km/h 7.0mph /  11.3km/h 96% 0.00in /  0mm
08:58 58.4 °F /  14.7 °C 57.3 °F /  14.1 °C 29.69in /  1005.3hPa West 4.0mph /  6.4km/h 7.0mph /  11.3km/h 96% 0.00in /  0mm
09:02 58.4 °F /  14.7 °C 57.0 °F /  13.9 °C 29.69in /  1005.3hPa WSW 3.0mph /  4.8km/h 7.0mph /  11.3km/h 95% 0.00in /  0mm
09:03 58.4 °F /  14.7 °C 57.3 °F /  14.1 °C 29.69in /  1005.3hPa SW 3.0mph /  4.8km/h 7.0mph /  11.3km/h 96% 0.00in /  0mm
09:07 58.5 °F /  14.7 °C 57.4 °F /  14.1 °C 29.69in /  1005.3hPa WNW 2.0mph /  3.2km/h 4.0mph /  6.4km/h 96% 0.00in /  0mm
09:12 58.6 °F /  14.8 °C 57.5 °F /  14.2 °C 29.69in /  1005.3hPa WSW 2.0mph /  3.2km/h 5.0mph /  8km/h 96% 0.00in /  0mm
09:17 58.6 °F /  14.8 °C 57.2 °F /  14 °C 29.69in /  1005.3hPa WSW 3.0mph /  4.8km/h 4.0mph /  6.4km/h 95% 0.00in /  0mm
09:22 58.7 °F /  14.8 °C 57.6 °F /  14.2 °C 29.69in /  1005.3hPa WNW 2.0mph /  3.2km/h 6.0mph /  9.7km/h 96% 0.00in /  0mm
09:23 58.7 °F /  14.8 °C 57.6 °F /  14.2 °C 29.69in /  1005.3hPa WNW 3.0mph /  4.8km/h 6.0mph /  9.7km/h 96% 0.00in /  0mm
09:28 58.8 °F /  14.9 °C 57.7 °F /  14.3 °C 29.69in /  1005.3hPa WSW 3.0mph /  4.8km/h 5.0mph /  8km/h 96% 0.00in /  0mm
09:30 58.7 °F /  14.8 °C 57.6 °F /  14.2 °C 29.69in /  1005.3hPa WSW 5.0mph /  8km/h 6.0mph /  9.7km/h 96% 0.00in /  0mm
09:33 58.7 °F /  14.8 °C 57.6 °F /  14.2 °C 29.69in /  1005.3hPa WSW 3.0mph /  4.8km/h 7.0mph /  11.3km/h 96% 0.00in /  0mm
09:35 58.8 °F /  14.9 °C 57.7 °F /  14.3 °C 29.69in /  1005.3hPa SSW 3.0mph /  4.8km/h 5.0mph /  8km/h 96% 0.00in /  0mm
09:36 58.8 °F /  14.9 °C 57.7 °F /  14.3 °C 29.69in /  1005.3hPa WSW 3.0mph /  4.8km/h 5.0mph /  8km/h 96% 0.00in /  0mm
09:40 58.8 °F /  14.9 °C 57.7 °F /  14.3 °C 29.69in /  1005.3hPa SW 3.0mph /  4.8km/h 6.0mph /  9.7km/h 96% 0.00in /  0mm
09:41 58.8 °F /  14.9 °C 57.7 °F /  14.3 °C 29.69in /  1005.3hPa SW 5.0mph /  8km/h 6.0mph /  9.7km/h 96% 0.00in /  0mm
09:46 58.8 °F /  14.9 °C 58.0 °F /  14.4 °C 29.69in /  1005.3hPa WSW 2.0mph /  3.2km/h 7.0mph /  11.3km/h 97% 0.00in /  0mm
09:51 58.8 °F /  14.9 °C 58.0 °F /  14.4 °C 29.69in /  1005.3hPa WSW 4.0mph /  6.4km/h 4.0mph /  6.4km/h 97% 0.00in /  0mm
09:56 58.7 °F /  14.8 °C 57.6 °F /  14.2 °C 29.69in /  1005.3hPa WSW 6.0mph /  9.7km/h 8.0mph /  12.9km/h 96% 0.00in /  0mm
09:58 58.7 °F /  14.8 °C 57.6 °F /  14.2 °C 29.70in /  1005.6hPa WNW 3.0mph /  4.8km/h 9.0mph /  14.5km/h 96% 0.00in /  0mm
10:01 58.7 °F /  14.8 °C 57.6 °F /  14.2 °C 29.70in /  1005.6hPa West 5.0mph /  8km/h 7.0mph /  11.3km/h 96% 0.00in /  0mm
10:06 58.8 °F /  14.9 °C 58.0 °F /  14.4 °C 29.70in /  1005.6hPa WNW 5.0mph /  8km/h 6.0mph /  9.7km/h 97% 0.00in /  0mm
10:11 58.9 °F /  14.9 °C 58.0 °F /  14.4 °C 29.70in /  1005.6hPa WSW 4.0mph /  6.4km/h 5.0mph /  8km/h 97% 0.00in /  0mm
10:12 58.9 °F /  14.9 °C 58.0 °F /  14.4 °C 29.70in /  1005.6hPa SW 4.0mph /  6.4km/h 5.0mph /  8km/h 97% 0.00in /  0mm
10:17 58.9 °F /  14.9 °C 57.8 °F /  14.3 °C 29.70in /  1005.6hPa WNW 6.0mph /  9.7km/h 9.0mph /  14.5km/h 96% 0.00in /  0mm
10:18 58.9 °F /  14.9 °C 57.8 °F /  14.3 °C 29.70in /  1005.6hPa WSW 6.0mph /  9.7km/h 9.0mph /  14.5km/h 96% 0.00in /  0mm
10:22 59.0 °F /  15 °C 58.2 °F /  14.6 °C 29.70in /  1005.6hPa WSW 3.0mph /  4.8km/h 5.0mph /  8km/h 97% 0.00in /  0mm
10:27 59.3 °F /  15.2 °C 58.2 °F /  14.6 °C 29.70in /  1005.6hPa West 3.0mph /  4.8km/h 7.0mph /  11.3km/h 96% 0.00in /  0mm
10:32 59.9 °F /  15.5 °C 58.8 °F /  14.9 °C 29.70in /  1005.6hPa West 4.0mph /  6.4km/h 6.0mph /  9.7km/h 96% 0.00in /  0mm
10:33 59.9 °F /  15.5 °C 58.8 °F /  14.9 °C 29.70in /  1005.6hPa West 4.0mph /  6.4km/h 6.0mph /  9.7km/h 96% 0.00in /  0mm
10:34 60.3 °F /  15.7 °C 59.2 °F /  15.1 °C 29.70in /  1005.6hPa WSW 7.0mph /  11.3km/h 7.0mph /  11.3km/h 96% 0.00in /  0mm
10:36 60.6 °F /  15.9 °C 59.2 °F /  15.1 °C 29.70in /  1005.6hPa WNW 5.0mph /  8km/h 8.0mph /  12.9km/h 95% 0.00in /  0mm
10:38 60.7 °F /  15.9 °C 59.3 °F /  15.2 °C 29.70in /  1005.6hPa WNW 6.0mph /  9.7km/h 8.0mph /  12.9km/h 95% 0.00in /  0mm
10:43 60.7 °F /  15.9 °C 59.0 °F /  15 °C 29.70in /  1005.6hPa WSW 6.0mph /  9.7km/h 8.0mph /  12.9km/h 94% 0.00in /  0mm
10:48 60.7 °F /  15.9 °C 58.7 °F /  14.8 °C 29.70in /  1005.6hPa WSW 7.0mph /  11.3km/h 8.0mph /  12.9km/h 93% 0.00in /  0mm
10:53 60.6 °F /  15.9 °C 58.6 °F /  14.8 °C 29.70in /  1005.6hPa SW 10.0mph /  16.1km/h 13.0mph /  20.9km/h 93% 0.00in /  0mm
10:54 60.5 °F /  15.8 °C 58.5 °F /  14.7 °C 29.70in /  1005.6hPa West 5.0mph /  8km/h 10.0mph /  16.1km/h 93% 0.00in /  0mm
10:58 60.3 °F /  15.7 °C 58.3 °F /  14.6 °C 29.70in /  1005.6hPa West 5.0mph /  8km/h 10.0mph /  16.1km/h 93% 0.00in /  0mm
11:03 60.3 °F /  15.7 °C 58.6 °F /  14.8 °C 29.70in /  1005.6hPa WSW 6.0mph /  9.7km/h 9.0mph /  14.5km/h 94% 0.00in /  0mm
11:04 60.3 °F /  15.7 °C 58.6 °F /  14.8 °C 29.70in /  1005.6hPa West 8.0mph /  12.9km/h 9.0mph /  14.5km/h 94% 0.00in /  0mm
11:09 61.1 °F /  16.2 °C 59.4 °F /  15.2 °C 29.70in /  1005.6hPa West 8.0mph /  12.9km/h 11.0mph /  17.7km/h 94% 0.00in /  0mm
11:14 61.1 °F /  16.2 °C 59.1 °F /  15.1 °C 29.70in /  1005.6hPa West 9.0mph /  14.5km/h 14.0mph /  22.5km/h 93% 0.00in /  0mm
11:19 60.9 °F /  16.1 °C 58.6 °F /  14.8 °C 29.71in /  1006hPa WSW 9.0mph /  14.5km/h 12.0mph /  19.3km/h 92% 0.00in /  0mm
11:30 60.8 °F /  16 °C 58.5 °F /  14.7 °C 29.71in /  1006hPa West 7.0mph /  11.3km/h 16.0mph /  25.7km/h 92% 0.00in /  0mm
12:00 60.5 °F /  15.8 °C 58.2 °F /  14.6 °C 29.72in /  1006.3hPa West 6.0mph /  9.7km/h 18.0mph /  29km/h 92% 0.00in /  0mm
12:30 60.0 °F /  15.6 °C 58.6 °F /  14.8 °C 29.72in /  1006.3hPa WNW 5.0mph /  8km/h 12.0mph /  19.3km/h 95% 0.32in /  8.13mm
13:00 60.1 °F /  15.6 °C 58.4 °F /  14.7 °C 29.72in /  1006.3hPa WNW 5.0mph /  8km/h 13.0mph /  20.9km/h 94% 0.08in /  2.03mm
13:30 61.8 °F /  16.6 °C 58.8 °F /  14.9 °C 29.72in /  1006.3hPa WNW 6.0mph /  9.7km/h 17.0mph /  27.4km/h 90% 0.00in /  0mm
14:00 61.8 °F /  16.6 °C 59.2 °F /  15.1 °C 29.72in /  1006.3hPa WNW 8.0mph /  12.9km/h 21.0mph /  33.8km/h 91% 0.00in /  0mm
14:30 61.9 °F /  16.6 °C 58.3 °F /  14.6 °C 29.72in /  1006.3hPa WNW 8.0mph /  12.9km/h 20.0mph /  32.2km/h 88% 0.00in /  0mm
15:00 61.8 °F /  16.6 °C 57.2 °F /  14 °C 29.72in /  1006.3hPa West 8.0mph /  12.9km/h 16.0mph /  25.7km/h 85% 0.00in /  0mm
15:30 61.0 °F /  16.1 °C 56.1 °F /  13.4 °C 29.72in /  1006.3hPa West 8.0mph /  12.9km/h 15.0mph /  24.1km/h 84% 0.00in /  0mm
16:00 61.8 °F /  16.6 °C 56.6 °F /  13.7 °C 29.72in /  1006.3hPa West 7.0mph /  11.3km/h 14.0mph /  22.5km/h 83% 0.00in /  0mm
16:30 60.7 °F /  15.9 °C 57.1 °F /  13.9 °C 29.72in /  1006.3hPa WNW 7.0mph /  11.3km/h 16.0mph /  25.7km/h 88% 0.00in /  0mm
17:00 58.7 °F /  14.8 °C 55.8 °F /  13.2 °C 29.73in /  1006.7hPa WNW 8.0mph /  12.9km/h 17.0mph /  27.4km/h 90% 0.00in /  0mm
17:30 58.1 °F /  14.5 °C 54.9 °F /  12.7 °C 29.73in /  1006.7hPa WNW 8.0mph /  12.9km/h 17.0mph /  27.4km/h 89% 0.00in /  0mm
18:00 58.0 °F /  14.4 °C 54.2 °F /  12.3 °C 29.73in /  1006.7hPa WNW 7.0mph /  11.3km/h 19.0mph /  30.6km/h 87% 0.00in /  0mm
18:30 58.3 °F /  14.6 °C 54.8 °F /  12.7 °C 29.73in /  1006.7hPa WNW 6.0mph /  9.7km/h 13.0mph /  20.9km/h 88% 0.00in /  0mm
19:00 57.4 °F /  14.1 °C 53.9 °F /  12.2 °C 29.73in /  1006.7hPa WNW 7.0mph /  11.3km/h 15.0mph /  24.1km/h 88% 0.00in /  0mm
19:30 57.0 °F /  13.9 °C 53.5 °F /  11.9 °C 29.74in /  1007hPa WNW 6.0mph /  9.7km/h 11.0mph /  17.7km/h 88% 0.00in /  0mm
20:00 56.4 °F /  13.6 °C 53.2 °F /  11.8 °C 29.74in /  1007hPa WNW 7.0mph /  11.3km/h 13.0mph /  20.9km/h 89% 0.00in /  0mm
20:30 55.6 °F /  13.1 °C 53.3 °F /  11.8 °C 29.75in /  1007.3hPa WNW 4.0mph /  6.4km/h 10.0mph /  16.1km/h 92% 0.00in /  0mm
21:00 54.7 °F /  12.6 °C 53.6 °F /  12 °C 29.76in /  1007.7hPa WNW 4.0mph /  6.4km/h 10.0mph /  16.1km/h 96% 0.00in /  0mm
21:30 54.5 °F /  12.5 °C 53.4 °F /  11.9 °C 29.76in /  1007.7hPa West 4.0mph /  6.4km/h 11.0mph /  17.7km/h 96% 0.00in /  0mm
22:00 54.4 °F /  12.4 °C 53.6 °F /  12 °C 29.77in /  1008hPa WNW 4.0mph /  6.4km/h 9.0mph /  14.5km/h 97% 0.00in /  0mm
22:30 54.3 °F /  12.4 °C 53.2 °F /  11.8 °C 29.78in /  1008.4hPa WNW 4.0mph /  6.4km/h 11.0mph /  17.7km/h 96% 0.00in /  0mm
23:00 54.1 °F /  12.3 °C 53.0 °F /  11.7 °C 29.78in /  1008.4hPa WNW 4.0mph /  6.4km/h 9.0mph /  14.5km/h 96% 0.00in /  0mm
23:30 54.1 °F /  12.3 °C 53.0 °F /  11.7 °C 29.78in /  1008.4hPa WNW 3.0mph /  4.8km/h 8.0mph /  12.9km/h 96% 0.00in /  0mm
Compliments of Weather Underground